createdAt,value
2023-05-20T00:00:49.119Z,21.93
2023-05-20T00:01:49.133Z,22.02
2023-05-20T00:02:49.169Z,22.02
2023-05-20T00:03:49.266Z,21.93
2023-05-20T00:04:49.114Z,22.02
2023-05-20T00:05:49.117Z,21.93
2023-05-20T00:06:49.091Z,21.93
2023-05-20T00:07:49.129Z,21.93
2023-05-20T00:08:49.091Z,21.93
2023-05-20T00:09:49.103Z,21.83
2023-05-20T00:10:49.094Z,21.93
2023-05-20T00:11:49.097Z,21.83
2023-05-20T00:12:49.089Z,21.93
2023-05-20T00:13:49.093Z,21.83
2023-05-20T00:14:49.086Z,21.93
2023-05-20T00:15:49.092Z,22.02
2023-05-20T00:16:49.125Z,22.02
2023-05-20T00:17:49.139Z,21.93
2023-05-20T00:18:49.168Z,21.93
2023-05-20T00:19:49.103Z,22.02
2023-05-20T00:20:49.101Z,21.83
2023-05-20T00:21:49.094Z,21.93
2023-05-20T00:22:49.110Z,22.02
2023-05-20T00:23:49.119Z,22.02
2023-05-20T00:24:49.090Z,22.02
2023-05-20T00:25:49.092Z,21.93
2023-05-20T00:26:49.090Z,21.93
2023-05-20T00:27:49.095Z,22.02
2023-05-20T00:28:49.087Z,21.94
2023-05-20T00:29:49.093Z,21.93
2023-05-20T00:30:49.084Z,21.93
2023-05-20T00:31:49.140Z,21.93
2023-05-20T00:32:49.098Z,21.83
2023-05-20T00:33:49.090Z,21.93
2023-05-20T00:34:49.080Z,21.83
2023-05-20T00:35:49.088Z,22.02
2023-05-20T00:36:49.079Z,22.02
2023-05-20T00:37:49.107Z,21.93
2023-05-20T00:38:49.080Z,21.93
2023-05-20T00:39:49.111Z,22.02
2023-05-20T00:40:49.079Z,21.93
2023-05-20T00:41:49.090Z,21.93
2023-05-20T00:42:49.083Z,21.83
2023-05-20T00:43:49.085Z,21.93
2023-05-20T00:44:49.086Z,21.93
2023-05-20T00:45:49.106Z,21.83
2023-05-20T00:46:49.077Z,21.93
2023-05-20T00:47:49.126Z,21.93
2023-05-20T00:48:49.077Z,21.83
2023-05-20T00:49:50.498Z,21.93
2023-05-20T00:50:49.082Z,21.93
2023-05-20T00:51:49.082Z,21.93
2023-05-20T00:52:49.073Z,21.93
2023-05-20T00:53:49.085Z,22.02
2023-05-20T00:54:49.077Z,22.02
2023-05-20T00:55:49.107Z,22.02
2023-05-20T00:56:49.073Z,21.93
2023-05-20T00:57:49.081Z,21.93
2023-05-20T00:58:49.081Z,21.93
2023-05-20T00:59:49.092Z,22.02
2023-05-20T01:00:49.074Z,21.93
2023-05-20T01:01:49.176Z,21.93
2023-05-20T01:02:49.185Z,21.93
2023-05-20T01:03:49.202Z,22.03
2023-05-20T01:04:49.091Z,21.93
2023-05-20T01:05:49.080Z,22.02
2023-05-20T01:06:49.071Z,22.02
2023-05-20T01:07:49.074Z,21.83
2023-05-20T01:08:49.069Z,21.93
2023-05-20T01:09:49.077Z,21.94
2023-05-20T01:10:49.067Z,22.02
2023-05-20T01:11:49.100Z,21.93
2023-05-20T01:12:49.073Z,21.93
2023-05-20T01:13:49.073Z,22.03
2023-05-20T01:14:49.070Z,21.94
2023-05-20T01:15:49.089Z,21.93
2023-05-20T01:16:49.066Z,21.93
2023-05-20T01:17:49.107Z,21.94
2023-05-20T01:18:49.103Z,21.84
2023-05-20T01:19:49.125Z,21.84
2023-05-20T01:20:49.064Z,21.93
2023-05-20T01:21:49.078Z,22.02
2023-05-20T01:22:49.067Z,21.93
2023-05-20T01:23:49.071Z,22.02
2023-05-20T01:24:49.064Z,21.84
2023-05-20T01:25:49.076Z,21.93
2023-05-20T01:26:49.062Z,22.03
2023-05-20T01:27:49.418Z,22.02
2023-05-20T01:28:49.062Z,22.02
2023-05-20T01:29:49.070Z,22.03
2023-05-20T01:30:49.086Z,21.93
2023-05-20T01:31:49.156Z,21.93
2023-05-20T01:32:49.077Z,21.93
2023-05-20T01:33:49.070Z,22.02
2023-05-20T01:34:49.066Z,22.02
2023-05-20T01:35:49.066Z,21.93
2023-05-20T01:36:49.059Z,22.12
2023-05-20T01:37:49.067Z,22.02
2023-05-20T01:38:49.057Z,22.02
2023-05-20T01:39:49.069Z,22.12
2023-05-20T01:40:49.079Z,22.02
2023-05-20T01:41:49.071Z,22.02
2023-05-20T01:42:49.057Z,22.02
2023-05-20T01:43:49.093Z,22.03
2023-05-20T01:44:49.068Z,22.02
2023-05-20T01:45:49.068Z,22.12
2023-05-20T01:46:49.104Z,22.02
2023-05-20T01:47:49.115Z,22.12
2023-05-20T01:48:49.059Z,22.13
2023-05-20T01:49:49.063Z,22.02
2023-05-20T01:50:49.056Z,22.13
2023-05-20T01:51:49.073Z,22.02
2023-05-20T01:52:49.064Z,22.02
2023-05-20T01:53:49.068Z,22.02
2023-05-20T01:54:49.053Z,22.12
2023-05-20T01:55:49.072Z,21.93
2023-05-20T01:56:49.070Z,22.02
2023-05-20T01:57:49.074Z,22.12
2023-05-20T01:58:49.054Z,22.02
2023-05-20T01:59:49.084Z,22.02
2023-05-20T02:00:49.100Z,22.02
2023-05-20T02:01:49.077Z,22.02
2023-05-20T02:02:49.124Z,22.02
2023-05-20T02:03:49.062Z,22.02
2023-05-20T02:04:49.090Z,22.03
2023-05-20T02:05:49.111Z,22.02
2023-05-20T02:06:49.065Z,22.02
2023-05-20T02:07:49.065Z,22.02
2023-05-20T02:08:49.056Z,22.02
2023-05-20T02:09:49.064Z,22.12
2023-05-20T02:10:49.074Z,22.03
2023-05-20T02:11:49.061Z,22.02
2023-05-20T02:12:49.056Z,22.12
2023-05-20T02:13:49.061Z,22.12
2023-05-20T02:14:49.053Z,22.22
2023-05-20T02:15:49.079Z,22.12
2023-05-20T02:16:49.116Z,22.12
2023-05-20T02:17:49.113Z,22.22
2023-05-20T02:18:49.072Z,22.22
2023-05-20T02:19:49.061Z,22.22
2023-05-20T02:20:49.062Z,22.23
2023-05-20T02:21:49.115Z,22.22
2023-05-20T02:22:49.052Z,22.12
2023-05-20T02:23:49.063Z,22.22
2023-05-20T02:24:49.055Z,22.12
2023-05-20T02:25:49.061Z,22.23
2023-05-20T02:26:49.053Z,22.22
2023-05-20T02:27:49.058Z,22.12
2023-05-20T02:28:49.051Z,22.12
2023-05-20T02:29:49.061Z,22.12
2023-05-20T02:30:49.050Z,22.31
2023-05-20T02:31:49.088Z,22.22
2023-05-20T02:32:49.071Z,22.31
2023-05-20T02:33:49.110Z,22.22
2023-05-20T02:34:49.056Z,22.22
2023-05-20T02:35:49.059Z,22.31
2023-05-20T02:36:49.051Z,22.23
2023-05-20T02:37:49.066Z,22.41
2023-05-20T02:38:49.062Z,22.22
2023-05-20T02:39:49.064Z,22.31
2023-05-20T02:40:49.065Z,22.31
2023-05-20T02:41:49.051Z,22.31
2023-05-20T02:42:49.060Z,22.22
2023-05-20T02:43:49.047Z,22.22
2023-05-20T02:44:49.066Z,22.22
2023-05-20T02:45:49.106Z,22.31
2023-05-20T02:46:49.061Z,22.31
2023-05-20T02:47:49.105Z,22.31
2023-05-20T02:48:49.056Z,22.33
2023-05-20T02:49:49.064Z,22.31
2023-05-20T02:50:49.055Z,22.22
2023-05-20T02:51:49.073Z,22.22
2023-05-20T02:52:49.066Z,22.22
2023-05-20T02:53:49.052Z,22.23
2023-05-20T02:54:49.052Z,22.31
2023-05-20T02:55:49.054Z,22.22
2023-05-20T02:56:49.056Z,22.31
2023-05-20T02:57:49.051Z,22.31
2023-05-20T02:58:49.092Z,22.31
2023-05-20T02:59:49.060Z,22.22
2023-05-20T03:00:49.051Z,22.31
2023-05-20T03:01:49.117Z,22.22
2023-05-20T03:02:49.090Z,22.22
2023-05-20T03:03:49.064Z,22.31
2023-05-20T03:04:49.062Z,22.31
2023-05-20T03:05:49.046Z,22.22
2023-05-20T03:06:49.063Z,22.22
2023-05-20T03:07:49.044Z,22.31
2023-05-20T03:08:49.048Z,22.22
2023-05-20T03:09:49.041Z,22.31
2023-05-20T03:10:49.049Z,22.22
2023-05-20T03:11:49.043Z,22.22
2023-05-20T03:12:49.054Z,22.22
2023-05-20T03:13:49.048Z,22.22
2023-05-20T03:14:49.048Z,22.22
2023-05-20T03:15:49.053Z,22.22
2023-05-20T03:16:49.046Z,22.22
2023-05-20T03:17:49.096Z,22.23
2023-05-20T03:18:49.077Z,22.22
2023-05-20T03:19:49.064Z,22.22
2023-05-20T03:20:49.044Z,22.22
2023-05-20T03:21:49.036Z,22.22
2023-05-20T03:22:49.048Z,22.22
2023-05-20T03:23:49.052Z,22.31
2023-05-20T03:24:49.052Z,22.31
2023-05-20T03:25:49.038Z,22.31
2023-05-20T03:26:49.056Z,22.31
2023-05-20T03:27:49.032Z,22.33
2023-05-20T03:28:49.041Z,22.31
2023-05-20T03:29:49.040Z,22.31
2023-05-20T03:30:49.040Z,22.31
2023-05-20T03:31:49.123Z,22.33
2023-05-20T03:32:49.082Z,22.22
2023-05-20T03:33:49.044Z,22.22
2023-05-20T03:34:49.052Z,22.31
2023-05-20T03:35:49.062Z,22.22
2023-05-20T03:36:49.039Z,22.41
2023-05-20T03:37:49.030Z,22.33
2023-05-20T03:38:49.037Z,22.33
2023-05-20T03:39:49.033Z,22.51
2023-05-20T03:40:49.035Z,22.41
2023-05-20T03:41:49.034Z,22.33
2023-05-20T03:42:49.035Z,22.41
2023-05-20T03:43:49.028Z,22.42
2023-05-20T03:44:49.035Z,22.41
2023-05-20T03:45:49.030Z,22.41
2023-05-20T03:46:49.087Z,22.31
2023-05-20T03:47:49.072Z,22.31
2023-05-20T03:48:49.037Z,22.31
2023-05-20T03:49:49.033Z,22.33
2023-05-20T03:50:49.035Z,22.31
2023-05-20T03:51:49.057Z,22.41
2023-05-20T03:52:49.034Z,22.31
2023-05-20T03:53:49.024Z,22.33
2023-05-20T03:54:49.039Z,22.42
2023-05-20T03:55:49.025Z,22.33
2023-05-20T03:56:49.045Z,22.52
2023-05-20T03:57:49.055Z,22.31
2023-05-20T03:58:49.044Z,22.33
2023-05-20T03:59:49.023Z,22.41
2023-05-20T04:00:49.049Z,22.33
2023-05-20T04:01:49.065Z,22.33
2023-05-20T04:02:49.107Z,22.41
2023-05-20T04:03:49.153Z,22.31
2023-05-20T04:04:49.031Z,22.31
2023-05-20T04:05:49.045Z,22.41
2023-05-20T04:06:49.028Z,22.42
2023-05-20T04:07:49.072Z,22.41
2023-05-20T04:08:49.030Z,22.41
2023-05-20T04:09:49.021Z,22.41
2023-05-20T04:10:49.034Z,22.42
2023-05-20T04:11:49.030Z,22.41
2023-05-20T04:12:49.027Z,22.42
2023-05-20T04:13:49.030Z,22.31
2023-05-20T04:14:49.045Z,22.42
2023-05-20T04:15:49.020Z,22.33
2023-05-20T04:16:49.070Z,22.33
2023-05-20T04:17:49.063Z,22.31
2023-05-20T04:18:49.105Z,22.42
2023-05-20T04:19:49.016Z,22.52
2023-05-20T04:20:49.026Z,22.41
2023-05-20T04:21:49.024Z,22.33
2023-05-20T04:22:49.040Z,22.41
2023-05-20T04:23:49.053Z,22.41
2023-05-20T04:24:49.038Z,22.52
2023-05-20T04:25:49.031Z,22.42
2023-05-20T04:26:49.023Z,22.51
2023-05-20T04:27:49.016Z,22.51
2023-05-20T04:28:49.031Z,22.52
2023-05-20T04:29:49.074Z,22.61
2023-05-20T04:30:49.022Z,22.33
2023-05-20T04:31:49.057Z,22.41
2023-05-20T04:32:49.082Z,22.41
2023-05-20T04:33:49.017Z,22.52
2023-05-20T04:34:49.030Z,22.42
2023-05-20T04:35:49.015Z,22.51
2023-05-20T04:36:49.025Z,22.42
2023-05-20T04:37:49.036Z,22.51
2023-05-20T04:38:49.022Z,22.51
2023-05-20T04:39:49.040Z,22.52
2023-05-20T04:40:49.051Z,22.52
2023-05-20T04:41:49.015Z,22.52
2023-05-20T04:42:49.033Z,22.52
2023-05-20T04:43:49.018Z,22.52
2023-05-20T04:44:49.027Z,22.51
2023-05-20T04:45:49.034Z,22.41
2023-05-20T04:46:49.021Z,22.51
2023-05-20T04:47:49.067Z,22.41
2023-05-20T04:48:49.023Z,22.33
2023-05-20T04:49:49.013Z,22.41
2023-05-20T04:50:49.020Z,22.33
2023-05-20T04:51:49.013Z,22.51
2023-05-20T04:52:49.021Z,22.51
2023-05-20T04:53:49.015Z,22.51
2023-05-20T04:54:49.020Z,22.41
2023-05-20T04:55:49.039Z,22.42
2023-05-20T04:56:49.017Z,22.42
2023-05-20T04:57:49.019Z,22.31
2023-05-20T04:58:49.017Z,22.42
2023-05-20T04:59:49.012Z,22.41
2023-05-20T05:00:49.014Z,22.41
2023-05-20T05:01:49.042Z,22.33
2023-05-20T05:02:49.049Z,22.31
2023-05-20T05:03:49.009Z,22.51
2023-05-20T05:04:49.020Z,22.52
2023-05-20T05:05:49.011Z,22.52
2023-05-20T05:06:49.019Z,22.62
2023-05-20T05:07:49.011Z,22.52
2023-05-20T05:08:49.032Z,22.41
2023-05-20T05:09:49.010Z,22.22
2023-05-20T05:10:49.019Z,22.33
2023-05-20T05:11:49.042Z,22.51
2023-05-20T05:12:49.017Z,22.51
2023-05-20T05:13:49.014Z,22.51
2023-05-20T05:14:49.019Z,22.51
2023-05-20T05:15:49.056Z,22.51
2023-05-20T05:16:49.013Z,22.41
2023-05-20T05:17:49.046Z,22.51
2023-05-20T05:18:49.032Z,22.51
2023-05-20T05:19:49.009Z,22.51
2023-05-20T05:20:49.018Z,22.51
2023-05-20T05:21:49.013Z,22.41
2023-05-20T05:22:49.017Z,22.62
2023-05-20T05:23:49.014Z,22.62
2023-05-20T05:24:49.015Z,22.62
2023-05-20T05:25:49.011Z,22.61
2023-05-20T05:26:49.014Z,22.51
2023-05-20T05:27:49.032Z,22.71
2023-05-20T05:28:49.017Z,22.61
2023-05-20T05:29:49.006Z,22.41
2023-05-20T05:30:49.032Z,22.51
2023-05-20T05:31:49.045Z,22.61
2023-05-20T05:32:49.170Z,22.80
2023-05-20T05:33:49.020Z,22.52
2023-05-20T05:34:49.024Z,22.62
2023-05-20T05:35:49.009Z,22.80
2023-05-20T05:36:49.021Z,22.80
2023-05-20T05:37:49.015Z,22.41
2023-05-20T05:38:49.017Z,22.71
2023-05-20T05:39:49.008Z,22.52
2023-05-20T05:40:49.019Z,22.51
2023-05-20T05:41:49.009Z,22.51
2023-05-20T05:42:49.006Z,22.80
2023-05-20T05:43:49.039Z,22.61
2023-05-20T05:44:49.028Z,22.42
2023-05-20T05:45:49.020Z,22.62
2023-05-20T05:46:49.054Z,22.71
2023-05-20T05:47:49.039Z,22.61
2023-05-20T05:48:49.050Z,22.71
2023-05-20T05:49:49.003Z,22.71
2023-05-20T05:50:49.012Z,22.71
2023-05-20T05:51:49.001Z,22.61
2023-05-20T05:52:49.014Z,22.71
2023-05-20T05:53:49.002Z,22.71
2023-05-20T05:54:49.006Z,22.61
2023-05-20T05:55:49.000Z,22.71
2023-05-20T05:56:49.006Z,22.61
2023-05-20T05:57:49.010Z,22.71
2023-05-20T05:58:49.010Z,22.71
2023-05-20T05:59:49.025Z,22.61
2023-05-20T06:00:49.049Z,22.61
2023-05-20T06:01:49.073Z,22.61
2023-05-20T06:02:49.402Z,22.61
2023-05-20T06:03:49.073Z,22.62
2023-05-20T06:04:49.004Z,22.61
2023-05-20T06:05:48.997Z,22.71
2023-05-20T06:06:49.002Z,22.61
2023-05-20T06:07:48.998Z,22.71
2023-05-20T06:08:49.001Z,22.61
2023-05-20T06:09:48.998Z,22.62
2023-05-20T06:10:49.007Z,22.71
2023-05-20T06:11:49.003Z,22.61
2023-05-20T06:12:49.002Z,22.61
2023-05-20T06:13:48.994Z,22.71
2023-05-20T06:14:49.008Z,22.71
2023-05-20T06:15:49.017Z,22.61
2023-05-20T06:16:49.079Z,22.71
2023-05-20T06:17:49.024Z,22.90
2023-05-20T06:18:49.040Z,22.71
2023-05-20T06:19:49.002Z,22.71
2023-05-20T06:20:49.000Z,22.71
2023-05-20T06:21:48.993Z,22.80
2023-05-20T06:22:49.002Z,22.71
2023-05-20T06:23:48.994Z,22.72
2023-05-20T06:24:49.001Z,22.72
2023-05-20T06:25:48.997Z,22.71
2023-05-20T06:26:48.999Z,22.71
2023-05-20T06:27:49.010Z,22.71
2023-05-20T06:28:49.000Z,22.72
2023-05-20T06:29:49.002Z,22.80
2023-05-20T06:30:49.086Z,22.72
2023-05-20T06:31:49.026Z,22.71
2023-05-20T06:32:49.067Z,22.80
2023-05-20T06:33:48.999Z,22.71
2023-05-20T06:34:48.996Z,22.61
2023-05-20T06:35:48.991Z,22.71
2023-05-20T06:36:49.022Z,22.80
2023-05-20T06:37:49.038Z,22.71
2023-05-20T06:38:49.015Z,22.71
2023-05-20T06:39:48.991Z,22.80
2023-05-20T06:40:48.999Z,22.80
2023-05-20T06:41:48.997Z,22.71
2023-05-20T06:42:48.997Z,22.90
2023-05-20T06:43:50.580Z,22.91
2023-05-20T06:44:48.998Z,22.99
2023-05-20T06:45:49.001Z,22.90
2023-05-20T06:46:49.024Z,22.90
2023-05-20T06:47:49.047Z,22.80
2023-05-20T06:48:49.001Z,22.90
2023-05-20T06:49:48.988Z,22.80
2023-05-20T06:50:49.002Z,22.81
2023-05-20T06:51:48.997Z,22.80
2023-05-20T06:52:49.006Z,22.90
2023-05-20T06:53:48.988Z,22.90
2023-05-20T06:54:48.988Z,22.99
2023-05-20T06:55:48.994Z,22.90
2023-05-20T06:56:48.988Z,22.90
2023-05-20T06:57:49.001Z,23.00
2023-05-20T06:58:48.985Z,22.90
2023-05-20T06:59:48.993Z,22.90
2023-05-20T07:00:48.986Z,22.99
2023-05-20T07:01:49.008Z,22.90
2023-05-20T07:02:49.018Z,22.90
2023-05-20T07:03:49.105Z,22.91
2023-05-20T07:04:48.986Z,23.09
2023-05-20T07:05:48.989Z,22.99
2023-05-20T07:06:48.983Z,22.99
2023-05-20T07:07:48.992Z,22.90
2023-05-20T07:08:48.985Z,23.09
2023-05-20T07:09:49.004Z,23.00
2023-05-20T07:10:48.998Z,23.09
2023-05-20T07:11:48.994Z,22.90
2023-05-20T07:12:48.983Z,23.19
2023-05-20T07:13:49.000Z,22.99
2023-05-20T07:14:49.062Z,23.09
2023-05-20T07:15:49.010Z,23.19
2023-05-20T07:16:48.981Z,22.99
2023-05-20T07:17:49.039Z,23.19
2023-05-20T07:18:49.017Z,23.09
2023-05-20T07:19:49.031Z,23.19
2023-05-20T07:20:48.988Z,23.19
2023-05-20T07:21:48.998Z,23.19
2023-05-20T07:22:48.979Z,23.09
2023-05-20T07:23:48.990Z,23.09
2023-05-20T07:24:48.986Z,23.09
2023-05-20T07:25:48.986Z,23.09
2023-05-20T07:26:48.981Z,23.10
2023-05-20T07:27:48.991Z,23.19
2023-05-20T07:28:48.982Z,23.09
2023-05-20T07:29:48.992Z,23.28
2023-05-20T07:30:48.978Z,23.19
2023-05-20T07:31:49.008Z,23.20
2023-05-20T07:32:48.993Z,23.28
2023-05-20T07:33:48.984Z,23.28
2023-05-20T07:34:48.976Z,23.19
2023-05-20T07:35:49.038Z,23.28
2023-05-20T07:36:48.976Z,23.28
2023-05-20T07:37:48.985Z,23.19
2023-05-20T07:39:00.574Z,23.48
2023-05-20T07:39:48.987Z,23.38
2023-05-20T07:40:48.979Z,23.38
2023-05-20T07:41:49.014Z,23.28
2023-05-20T07:42:48.983Z,23.28
2023-05-20T07:43:48.990Z,23.19
2023-05-20T07:44:48.973Z,23.38
2023-05-20T07:45:49.000Z,23.48
2023-05-20T07:46:48.990Z,23.28
2023-05-20T07:47:49.015Z,23.28
2023-05-20T07:48:48.976Z,23.28
2023-05-20T07:49:49.001Z,23.28
2023-05-20T07:50:48.977Z,23.28
2023-05-20T07:51:49.004Z,23.19
2023-05-20T07:53:48.979Z,23.38
2023-05-20T07:54:48.973Z,23.28
2023-05-20T07:55:48.987Z,23.28
2023-05-20T07:56:48.979Z,23.28
2023-05-20T07:57:48.979Z,23.19
2023-05-20T07:58:48.983Z,23.38
2023-05-20T07:59:48.992Z,23.38
2023-05-20T08:00:48.973Z,23.38
2023-05-20T08:01:48.996Z,23.48
2023-05-20T08:02:49.078Z,23.28
2023-05-20T08:03:49.036Z,23.38
2023-05-20T08:04:48.972Z,23.19
2023-05-20T08:05:48.983Z,23.58
2023-05-20T08:06:48.979Z,23.68
2023-05-20T08:07:49.004Z,23.38
2023-05-20T08:08:48.973Z,23.77
2023-05-20T08:09:48.979Z,23.58
2023-05-20T08:10:48.967Z,23.38
2023-05-20T08:11:48.976Z,23.58
2023-05-20T08:12:48.970Z,23.48
2023-05-20T08:13:48.980Z,23.48
2023-05-20T08:14:48.970Z,23.38
2023-05-20T08:15:48.985Z,23.38
2023-05-20T08:16:49.038Z,23.48
2023-05-20T08:17:49.025Z,23.48
2023-05-20T08:18:49.086Z,23.59
2023-05-20T08:19:48.991Z,23.58
2023-05-20T08:20:48.969Z,23.49
2023-05-20T08:21:48.976Z,23.48
2023-05-20T08:22:48.969Z,23.77
2023-05-20T08:23:48.994Z,23.48
2023-05-20T08:24:48.967Z,23.58
2023-05-20T08:25:48.974Z,23.68
2023-05-20T08:26:48.965Z,23.68
2023-05-20T08:27:48.973Z,23.68
2023-05-20T08:28:48.966Z,23.77
2023-05-20T08:29:48.973Z,23.77
2023-05-20T08:30:49.000Z,23.58
2023-05-20T08:31:48.972Z,23.77
2023-05-20T08:32:49.013Z,23.58
2023-05-20T08:33:48.978Z,23.48
2023-05-20T08:34:48.962Z,23.88
2023-05-20T08:35:48.980Z,23.58
2023-05-20T08:36:48.966Z,23.58
2023-05-20T08:37:48.983Z,23.59
2023-05-20T08:38:48.962Z,23.87
2023-05-20T08:39:49.022Z,23.49
2023-05-20T08:40:48.963Z,24.06
2023-05-20T08:41:48.969Z,24.06
2023-05-20T08:42:48.962Z,23.87
2023-05-20T08:43:48.969Z,23.96
2023-05-20T08:44:48.962Z,24.06
2023-05-20T08:45:48.978Z,23.87
2023-05-20T08:46:49.120Z,23.87
2023-05-20T08:47:49.005Z,23.77
2023-05-20T08:48:48.972Z,24.16
2023-05-20T08:49:48.974Z,24.27
2023-05-20T08:50:48.961Z,23.77
2023-05-20T08:51:48.969Z,23.87
2023-05-20T08:52:48.978Z,24.26
2023-05-20T08:53:48.970Z,24.26
2023-05-20T08:54:48.965Z,24.26
2023-05-20T08:55:49.004Z,23.68
2023-05-20T08:56:48.964Z,23.77
2023-05-20T08:57:48.974Z,23.58
2023-05-20T08:58:48.963Z,23.68
2023-05-20T08:59:48.970Z,24.27
2023-05-20T09:00:48.964Z,24.16
2023-05-20T09:01:48.998Z,23.96
2023-05-20T09:02:48.981Z,23.87
2023-05-20T09:03:48.979Z,23.96
2023-05-20T09:04:48.971Z,24.07
2023-05-20T09:05:48.967Z,24.06
2023-05-20T09:06:48.966Z,24.26
2023-05-20T09:07:48.971Z,24.06
2023-05-20T09:08:48.965Z,23.96
2023-05-20T09:09:48.973Z,23.96
2023-05-20T09:10:48.962Z,24.16
2023-05-20T09:11:49.041Z,24.07
2023-05-20T09:12:48.968Z,24.27
2023-05-20T09:13:48.975Z,24.26
2023-05-20T09:14:48.962Z,24.06
2023-05-20T09:15:48.982Z,24.16
2023-05-20T09:16:48.988Z,24.06
2023-05-20T09:17:49.014Z,24.16
2023-05-20T09:18:49.011Z,24.35
2023-05-20T09:19:48.973Z,24.07
2023-05-20T09:20:48.957Z,24.35
2023-05-20T09:21:48.966Z,24.45
2023-05-20T09:22:48.957Z,24.35
2023-05-20T09:23:48.983Z,24.45
2023-05-20T09:24:48.958Z,24.35
2023-05-20T09:25:48.966Z,24.45
2023-05-20T09:26:48.955Z,23.96
2023-05-20T09:27:48.987Z,23.96
2023-05-20T09:28:48.959Z,24.16
2023-05-20T09:29:49.064Z,24.45
2023-05-20T09:30:48.953Z,24.16
2023-05-20T09:31:49.001Z,24.07
2023-05-20T09:32:48.990Z,24.46
2023-05-20T09:33:48.961Z,24.16
2023-05-20T09:34:48.953Z,24.37
2023-05-20T09:35:48.958Z,24.16
2023-05-20T09:36:48.957Z,24.17
2023-05-20T09:37:48.984Z,24.16
2023-05-20T09:38:48.953Z,24.16
2023-05-20T09:39:48.957Z,24.26
2023-05-20T09:40:48.951Z,24.26
2023-05-20T09:41:48.958Z,24.35
2023-05-20T09:42:48.952Z,24.35
2023-05-20T09:43:48.984Z,24.45
2023-05-20T09:44:48.949Z,24.37
2023-05-20T09:45:49.007Z,24.45
2023-05-20T09:46:48.951Z,24.55
2023-05-20T09:47:49.068Z,24.65
2023-05-20T09:48:48.951Z,24.65
2023-05-20T09:49:48.961Z,24.76
2023-05-20T09:50:48.950Z,24.65
2023-05-20T09:51:48.956Z,24.74
2023-05-20T09:52:48.962Z,24.66
2023-05-20T09:53:48.976Z,24.76
2023-05-20T09:54:48.959Z,24.55
2023-05-20T09:55:48.969Z,24.55
2023-05-20T09:56:48.950Z,24.55
2023-05-20T09:57:48.959Z,24.76
2023-05-20T09:58:48.950Z,24.55
2023-05-20T09:59:48.982Z,24.65
2023-05-20T10:00:48.950Z,24.65
2023-05-20T10:01:49.050Z,24.65
2023-05-20T10:02:49.106Z,24.76
2023-05-20T10:03:49.078Z,24.65
2023-05-20T10:04:48.950Z,24.65
2023-05-20T10:05:48.966Z,24.46
2023-05-20T10:06:48.951Z,24.46
2023-05-20T10:07:48.959Z,24.45
2023-05-20T10:08:48.950Z,24.45
2023-05-20T10:09:48.966Z,24.37
2023-05-20T10:10:48.949Z,24.45
2023-05-20T10:11:48.958Z,24.46
2023-05-20T10:12:48.951Z,24.26
2023-05-20T10:13:48.971Z,24.55
2023-05-20T10:14:48.949Z,24.56
2023-05-20T10:15:49.018Z,24.37
2023-05-20T10:16:48.955Z,24.27
2023-05-20T10:17:48.978Z,24.27
2023-05-20T10:18:48.977Z,24.37
2023-05-20T10:19:48.956Z,24.27
2023-05-20T10:20:48.952Z,24.27
2023-05-20T10:21:48.962Z,24.35
2023-05-20T10:22:48.947Z,24.76
2023-05-20T10:23:48.953Z,24.74
2023-05-20T10:24:48.949Z,24.76
2023-05-20T10:25:48.958Z,24.74
2023-05-20T10:26:48.949Z,24.74
2023-05-20T10:27:48.955Z,24.74
2023-05-20T10:28:48.964Z,24.85
2023-05-20T10:30:48.949Z,24.84
2023-05-20T10:31:48.977Z,24.85
2023-05-20T10:32:49.091Z,24.85
2023-05-20T10:33:48.999Z,24.84
2023-05-20T10:34:48.949Z,24.74
2023-05-20T10:35:48.955Z,24.84
2023-05-20T10:36:48.955Z,24.76
2023-05-20T10:37:48.953Z,24.93
2023-05-20T10:38:48.943Z,24.85
2023-05-20T10:39:48.950Z,24.84
2023-05-20T10:40:48.948Z,24.85
2023-05-20T10:41:48.954Z,24.85
2023-05-20T10:42:48.949Z,25.04
2023-05-20T10:43:48.958Z,24.74
2023-05-20T10:44:48.942Z,25.04
2023-05-20T10:45:48.950Z,24.93
2023-05-20T10:47:49.020Z,25.04
2023-05-20T10:48:48.970Z,25.14
2023-05-20T10:49:48.949Z,25.04
2023-05-20T10:50:48.941Z,25.04
2023-05-20T10:51:48.950Z,25.04
2023-05-20T10:52:48.944Z,25.04
2023-05-20T10:53:48.958Z,24.95
2023-05-20T10:54:51.608Z,25.04
2023-05-20T10:55:48.950Z,24.95
2023-05-20T10:56:48.942Z,24.95
2023-05-20T10:57:48.947Z,24.95
2023-05-20T10:58:48.940Z,24.95
2023-05-20T10:59:48.952Z,24.95
2023-05-20T11:00:50.718Z,24.95
2023-05-20T11:01:48.952Z,25.04
2023-05-20T11:02:48.971Z,25.14
2023-05-20T11:03:49.099Z,25.14
2023-05-20T11:04:48.943Z,25.24
2023-05-20T11:05:48.948Z,25.14
2023-05-20T11:06:48.939Z,25.04
2023-05-20T11:07:48.945Z,25.04
2023-05-20T11:08:48.939Z,25.04
2023-05-20T11:09:48.949Z,25.13
2023-05-20T11:10:48.988Z,25.13
2023-05-20T11:11:48.945Z,25.14
2023-05-20T11:12:49.099Z,25.14
2023-05-20T11:13:48.946Z,25.14
2023-05-20T11:14:48.959Z,25.13
2023-05-20T11:15:48.941Z,25.14
2023-05-20T11:16:49.029Z,25.23
2023-05-20T11:17:48.980Z,25.13
2023-05-20T11:18:49.024Z,25.13
2023-05-20T11:19:48.969Z,25.23
2023-05-20T11:20:48.949Z,25.34
2023-05-20T11:21:48.938Z,25.34
2023-05-20T11:22:48.958Z,25.34
2023-05-20T11:23:48.943Z,25.24
2023-05-20T11:24:48.951Z,25.24
2023-05-20T11:25:48.939Z,25.24
2023-05-20T11:26:48.947Z,25.34
2023-05-20T11:27:48.947Z,25.24
2023-05-20T11:28:48.955Z,25.24
2023-05-20T11:29:48.939Z,25.43
2023-05-20T11:30:48.946Z,25.82
2023-05-20T11:31:48.948Z,25.92
2023-05-20T11:32:49.007Z,25.82
2023-05-20T11:33:48.935Z,25.81
2023-05-20T11:34:48.945Z,25.82
2023-05-20T11:35:48.969Z,25.52
2023-05-20T11:36:48.946Z,25.92
2023-05-20T11:37:48.937Z,25.82
2023-05-20T11:38:48.942Z,25.92
2023-05-20T11:39:48.935Z,25.82
2023-05-20T11:40:51.125Z,25.82
2023-05-20T11:41:48.938Z,25.82
2023-05-20T11:42:48.943Z,25.82
2023-05-20T11:43:48.943Z,25.82
2023-05-20T11:44:48.947Z,25.82
2023-05-20T11:45:48.983Z,25.71
2023-05-20T11:46:48.937Z,25.82
2023-05-20T11:47:48.955Z,25.82
2023-05-20T11:48:48.939Z,25.73
2023-05-20T11:49:48.930Z,25.63
2023-05-20T11:50:48.963Z,25.73
2023-05-20T11:51:48.954Z,25.63
2023-05-20T11:52:48.939Z,25.73
2023-05-20T11:53:48.931Z,25.63
2023-05-20T11:54:48.947Z,25.63
2023-05-20T11:55:48.970Z,25.63
2023-05-20T11:56:48.938Z,25.73
2023-05-20T11:57:48.933Z,25.63
2023-05-20T11:58:48.953Z,25.53
2023-05-20T11:59:48.930Z,25.52
2023-05-20T12:00:53.416Z,25.63
2023-05-20T12:01:48.932Z,25.73
2023-05-20T12:02:49.119Z,25.82
2023-05-20T12:03:49.205Z,25.63
2023-05-20T12:04:48.963Z,25.73
2023-05-20T12:05:48.940Z,25.63
2023-05-20T12:06:48.938Z,25.82
2023-05-20T12:07:48.956Z,25.73
2023-05-20T12:08:48.942Z,25.82
2023-05-20T12:09:48.933Z,25.53
2023-05-20T12:10:48.938Z,25.73
2023-05-20T12:11:48.935Z,25.63
2023-05-20T12:12:48.934Z,25.73
2023-05-20T12:13:48.932Z,25.63
2023-05-20T12:14:48.937Z,25.73
2023-05-20T12:15:49.020Z,25.63
2023-05-20T12:16:48.945Z,25.63
2023-05-20T12:17:49.006Z,25.62
2023-05-20T12:18:49.060Z,25.63
2023-05-20T12:19:48.935Z,25.63
2023-05-20T12:20:48.938Z,25.73
2023-05-20T12:21:48.931Z,25.53
2023-05-20T12:22:48.935Z,25.63
2023-05-20T12:23:48.950Z,25.73
2023-05-20T12:24:48.939Z,25.53
2023-05-20T12:25:48.933Z,25.73
2023-05-20T12:26:48.936Z,25.73
2023-05-20T12:27:48.963Z,25.73
2023-05-20T12:28:48.934Z,25.73
2023-05-20T12:29:48.926Z,25.53
2023-05-20T12:30:48.933Z,25.73
2023-05-20T12:31:48.999Z,25.63
2023-05-20T12:32:48.965Z,25.63
2023-05-20T12:33:48.928Z,25.63
2023-05-20T12:34:48.934Z,25.92
2023-05-20T12:35:48.922Z,25.81
2023-05-20T12:36:48.929Z,25.73
2023-05-20T12:37:48.923Z,25.92
2023-05-20T12:38:48.935Z,25.92
2023-05-20T12:39:48.999Z,25.82
2023-05-20T12:40:48.935Z,25.82
2023-05-20T12:41:48.922Z,25.82
2023-05-20T12:42:48.928Z,25.63
2023-05-20T12:43:48.924Z,26.01
2023-05-20T12:44:48.939Z,25.92
2023-05-20T12:45:48.921Z,25.82
2023-05-20T12:46:48.958Z,25.82
2023-05-20T12:47:48.959Z,25.73
2023-05-20T12:48:48.928Z,25.82
2023-05-20T12:49:48.919Z,25.92
2023-05-20T12:50:48.927Z,25.82
2023-05-20T12:51:48.918Z,26.11
2023-05-20T12:52:48.927Z,25.73
2023-05-20T12:53:48.918Z,25.73
2023-05-20T12:54:48.938Z,26.01
2023-05-20T12:55:48.938Z,26.01